createdAt,value
2019-03-13T00:02:25.652Z,7.10
2019-03-13T00:04:55.603Z,7.20
2019-03-13T00:07:27.643Z,7.20
2019-03-13T00:09:57.385Z,7.20
2019-03-13T00:12:27.024Z,7.20
2019-03-13T00:14:56.745Z,7.20
2019-03-13T00:17:26.407Z,7.20
2019-03-13T00:19:56.104Z,7.30
2019-03-13T00:22:25.754Z,7.30
2019-03-13T00:24:56.377Z,7.40
2019-03-13T00:27:26.740Z,7.40
2019-03-13T00:29:56.430Z,7.40
2019-03-13T00:32:26.159Z,7.50
2019-03-13T00:34:56.238Z,7.40
2019-03-13T00:37:25.867Z,6.70
2019-03-13T00:39:55.604Z,6.30
2019-03-13T00:42:25.324Z,5.90
2019-03-13T00:44:54.966Z,5.70
2019-03-13T00:47:24.615Z,5.60
2019-03-13T00:49:54.245Z,5.50
2019-03-13T00:52:23.902Z,5.40
2019-03-13T00:54:54.318Z,5.30
2019-03-13T00:57:24.201Z,5.40
2019-03-13T00:59:54.076Z,5.30
2019-03-13T01:02:31.821Z,5.30
2019-03-13T01:05:08.489Z,5.20
2019-03-13T01:07:38.892Z,5.30
2019-03-13T01:10:08.967Z,5.30
2019-03-13T01:12:38.648Z,5.30
2019-03-13T01:15:08.540Z,5.30
2019-03-13T01:17:39.184Z,5.30
2019-03-13T01:20:09.695Z,5.30
2019-03-13T01:22:39.420Z,5.30
2019-03-13T01:25:09.658Z,5.30
2019-03-13T01:27:39.530Z,5.40
2019-03-13T01:30:10.387Z,5.40
2019-03-13T01:32:59.188Z,5.40
2019-03-13T01:35:48.524Z,5.50
2019-03-13T01:38:18.164Z,5.60
2019-03-13T01:40:47.796Z,5.40
2019-03-13T01:43:17.499Z,5.40
2019-03-13T01:45:47.148Z,5.40
2019-03-13T01:48:17.093Z,5.50
2019-03-13T01:50:46.861Z,5.60
2019-03-13T01:53:16.727Z,5.40
2019-03-13T01:55:47.051Z,5.50
2019-03-13T01:58:16.981Z,5.50
2019-03-13T02:00:46.607Z,5.50
2019-03-13T02:03:16.239Z,5.50
2019-03-13T02:05:45.961Z,5.40
2019-03-13T02:08:15.659Z,5.50
2019-03-13T02:10:45.628Z,5.40
2019-03-13T02:13:15.270Z,5.30
2019-03-13T02:15:45.004Z,5.40
2019-03-13T02:18:14.635Z,5.30
2019-03-13T02:20:44.644Z,5.20
2019-03-13T02:23:14.847Z,5.20
2019-03-13T02:25:44.475Z,5.30
2019-03-13T02:28:14.195Z,5.30
2019-03-13T02:30:43.828Z,5.30
2019-03-13T02:33:13.737Z,5.30
2019-03-13T02:35:43.861Z,5.30
2019-03-13T02:38:13.493Z,5.30
2019-03-13T02:40:43.128Z,5.30
2019-03-13T02:43:13.133Z,5.40
2019-03-13T02:45:42.782Z,5.40
2019-03-13T02:48:12.410Z,5.50
2019-03-13T02:50:42.380Z,5.50
2019-03-13T02:53:12.513Z,5.50
2019-03-13T02:55:42.149Z,5.50
2019-03-13T02:58:11.760Z,5.50
2019-03-13T03:01:03.585Z,5.50
2019-03-13T03:03:36.636Z,5.60
2019-03-13T03:06:06.293Z,5.60
2019-03-13T03:08:35.932Z,5.60
2019-03-13T03:11:05.584Z,5.60
2019-03-13T03:13:35.349Z,5.60
2019-03-13T03:16:05.124Z,5.70
2019-03-13T03:18:35.136Z,5.70
2019-03-13T03:21:05.235Z,5.60
2019-03-13T03:23:35.217Z,5.60
2019-03-13T03:26:04.907Z,5.70
2019-03-13T03:28:34.543Z,5.60
2019-03-13T03:31:04.923Z,5.70
2019-03-13T03:33:34.648Z,5.70
2019-03-13T03:36:04.433Z,5.70
2019-03-13T03:38:34.057Z,5.60
2019-03-13T03:41:04.246Z,5.60
2019-03-13T03:43:40.378Z,5.70
2019-03-13T03:46:05.517Z,5.70
2019-03-13T03:48:35.164Z,5.70
2019-03-13T03:51:05.182Z,5.70
2019-03-13T03:53:35.064Z,5.70
2019-03-13T03:56:04.951Z,5.70
2019-03-13T03:58:34.572Z,5.70
2019-03-13T04:01:04.547Z,5.70
2019-03-13T04:03:34.255Z,5.70
2019-03-13T04:06:04.228Z,5.80
2019-03-13T04:08:37.546Z,5.70
2019-03-13T04:11:05.635Z,5.80
2019-03-13T04:13:35.597Z,5.80
2019-03-13T04:16:05.367Z,5.90
2019-03-13T04:18:35.127Z,5.80
2019-03-13T04:21:04.899Z,5.80
2019-03-13T04:23:34.877Z,5.90
2019-03-13T04:26:04.836Z,6.00
2019-03-13T04:28:34.555Z,5.90
2019-03-13T04:31:04.389Z,5.90
2019-03-13T04:33:34.278Z,5.90
2019-03-13T04:36:04.015Z,5.90
2019-03-13T04:38:33.726Z,5.90
2019-03-13T04:41:03.556Z,5.90
2019-03-13T04:43:33.255Z,5.90
2019-03-13T04:46:03.156Z,5.90
2019-03-13T04:48:33.177Z,5.90
2019-03-13T04:51:02.983Z,5.80
2019-03-13T04:53:32.637Z,5.80
2019-03-13T04:56:02.760Z,5.70
2019-03-13T04:58:32.431Z,5.70
2019-03-13T05:01:02.076Z,5.70
2019-03-13T05:03:32.784Z,5.70
2019-03-13T05:06:22.302Z,5.80
2019-03-13T05:09:05.690Z,5.80
2019-03-13T05:11:36.171Z,5.80
2019-03-13T05:14:06.444Z,5.80
2019-03-13T05:16:36.103Z,5.70
2019-03-13T05:19:05.754Z,5.70
2019-03-13T05:21:35.473Z,5.80
2019-03-13T05:24:05.237Z,5.80
2019-03-13T05:26:34.924Z,5.80
2019-03-13T05:29:04.907Z,5.80
2019-03-13T05:31:34.755Z,5.80
2019-03-13T05:34:04.764Z,5.90
2019-03-13T05:36:34.782Z,5.80
2019-03-13T05:39:06.554Z,5.80
2019-03-13T05:41:36.223Z,5.80
2019-03-13T05:44:06.262Z,5.80
2019-03-13T05:46:36.131Z,5.80
2019-03-13T05:49:05.788Z,5.80
2019-03-13T05:51:35.428Z,5.80
2019-03-13T05:54:06.155Z,5.80
2019-03-13T05:56:36.352Z,5.80
2019-03-13T05:59:06.300Z,5.80
2019-03-13T06:01:36.290Z,5.80
2019-03-13T06:04:06.115Z,5.80
2019-03-13T06:06:35.916Z,5.80
2019-03-13T06:09:07.391Z,5.90
2019-03-13T06:11:37.027Z,5.90
2019-03-13T06:14:06.723Z,5.90
2019-03-13T06:16:36.760Z,5.90
2019-03-13T06:19:06.491Z,6.00
2019-03-13T06:21:36.190Z,6.00
2019-03-13T06:24:05.955Z,6.00
2019-03-13T06:26:35.693Z,6.00
2019-03-13T06:29:05.559Z,6.00
2019-03-13T06:31:35.231Z,6.00
2019-03-13T06:34:04.988Z,6.00
2019-03-13T06:36:34.780Z,6.00
2019-03-13T06:39:06.527Z,6.00
2019-03-13T06:41:36.206Z,6.10
2019-03-13T06:44:06.067Z,6.00
2019-03-13T06:46:35.759Z,6.10
2019-03-13T06:49:05.443Z,6.10
2019-03-13T06:51:35.210Z,6.10
2019-03-13T06:54:05.122Z,6.10
2019-03-13T06:56:35.046Z,6.20
2019-03-13T06:59:23.052Z,6.20
2019-03-13T07:02:08.840Z,6.20
2019-03-13T07:04:58.763Z,6.20
2019-03-13T07:07:44.726Z,6.20
2019-03-13T07:10:33.484Z,6.20
2019-03-13T07:13:21.315Z,6.20
2019-03-13T07:15:57.721Z,6.30
2019-03-13T07:18:54.207Z,6.30
2019-03-13T07:21:43.045Z,6.30
2019-03-13T07:24:22.292Z,6.30
2019-03-13T07:27:14.399Z,6.20
2019-03-13T07:29:56.532Z,6.20
2019-03-13T07:32:45.380Z,6.30
2019-03-13T07:35:46.169Z,6.30
2019-03-13T07:38:40.980Z,6.20
2019-03-13T07:41:29.740Z,6.30
2019-03-13T07:44:18.587Z,6.30
2019-03-13T07:47:16.518Z,6.40
2019-03-13T07:50:05.337Z,6.40
2019-03-13T07:52:46.563Z,6.30
2019-03-13T07:55:35.720Z,6.40
2019-03-13T07:58:25.040Z,6.40
2019-03-13T08:01:06.413Z,6.30
2019-03-13T08:03:47.781Z,6.20
2019-03-13T08:06:42.015Z,6.30
2019-03-13T08:09:19.752Z,6.30
2019-03-13T08:12:11.531Z,6.40
2019-03-13T08:14:57.471Z,6.40
2019-03-13T08:17:34.467Z,6.40
2019-03-13T08:20:23.638Z,6.50
2019-03-13T08:23:24.668Z,6.50
2019-03-13T08:26:13.756Z,6.50
2019-03-13T08:28:55.976Z,6.50
2019-03-13T08:31:50.760Z,6.50
2019-03-13T08:34:40.731Z,6.50
2019-03-13T08:37:16.686Z,6.60
2019-03-13T08:40:00.477Z,6.50
2019-03-13T08:42:35.474Z,6.60
2019-03-13T08:45:32.149Z,6.70
2019-03-13T08:48:23.948Z,6.70
2019-03-13T08:51:16.688Z,6.70
2019-03-13T08:54:01.504Z,6.70
2019-03-13T08:56:48.472Z,6.70
2019-03-13T08:59:25.580Z,6.90
2019-03-13T09:02:29.792Z,6.90
2019-03-13T09:05:28.031Z,6.90
2019-03-13T09:08:25.724Z,6.90
2019-03-13T09:11:13.760Z,6.90
2019-03-13T09:14:01.784Z,6.90
2019-03-13T09:16:53.900Z,7.00
2019-03-13T09:19:39.836Z,7.00
2019-03-13T09:22:18.055Z,7.00
2019-03-13T09:25:11.664Z,7.00
2019-03-13T09:27:50.871Z,7.10
2019-03-13T09:30:45.598Z,7.00
2019-03-13T09:33:40.400Z,7.00
2019-03-13T09:36:25.691Z,7.00
2019-03-13T09:39:17.560Z,7.10
2019-03-13T09:42:18.613Z,7.10
2019-03-13T09:45:05.524Z,7.10
2019-03-13T09:47:50.909Z,7.10
2019-03-13T09:50:28.185Z,7.20
2019-03-13T09:53:16.180Z,7.20
2019-03-13T09:55:56.584Z,7.20
2019-03-13T09:58:35.371Z,7.20
2019-03-13T10:01:27.054Z,7.30
2019-03-13T10:04:09.012Z,7.30
2019-03-13T10:07:01.376Z,7.40
2019-03-13T10:09:43.896Z,7.40
2019-03-13T10:12:19.944Z,7.40
2019-03-13T10:15:24.181Z,7.40
2019-03-13T10:18:00.462Z,7.40
2019-03-13T10:20:47.929Z,7.50
2019-03-13T10:23:49.723Z,7.50
2019-03-13T10:26:41.375Z,7.40
2019-03-13T10:29:36.271Z,7.40
2019-03-13T10:32:40.328Z,7.40
2019-03-13T10:35:17.563Z,7.50
2019-03-13T10:37:57.712Z,7.40
2019-03-13T10:40:40.439Z,7.30
2019-03-13T10:43:44.835Z,7.40
2019-03-13T10:46:24.765Z,7.40
2019-03-13T10:49:11.827Z,7.40
2019-03-13T10:52:03.464Z,7.50
2019-03-13T10:54:43.608Z,7.40
2019-03-13T10:57:32.576Z,7.40
2019-03-13T11:00:13.757Z,7.50
2019-03-13T11:03:08.599Z,7.40
2019-03-13T11:05:46.247Z,7.40
2019-03-13T11:08:41.096Z,7.40
2019-03-13T11:11:22.088Z,7.40
2019-03-13T11:14:14.482Z,7.40
2019-03-13T11:16:57.926Z,7.40
2019-03-13T11:19:43.013Z,7.30
2019-03-13T11:22:22.354Z,7.30
2019-03-13T11:25:03.293Z,7.40
2019-03-13T11:27:43.683Z,7.50
2019-03-13T11:30:32.172Z,7.50
2019-03-13T11:33:14.224Z,7.50
2019-03-13T11:36:04.501Z,7.50
2019-03-13T11:38:51.244Z,7.40
2019-03-13T11:41:55.251Z,7.40
2019-03-13T11:44:47.334Z,7.40
2019-03-13T11:47:41.740Z,7.20
2019-03-13T11:50:20.771Z,7.10
2019-03-13T11:53:11.791Z,7.10
2019-03-13T11:55:57.708Z,7.00
2019-03-13T11:58:52.361Z,7.00
2019-03-13T12:01:45.920Z,6.90
2019-03-13T12:04:36.235Z,7.10
2019-03-13T12:07:27.953Z,7.10
2019-03-13T12:10:22.916Z,7.10
2019-03-13T12:13:10.905Z,7.10
2019-03-13T12:16:03.018Z,7.10
2019-03-13T12:18:44.639Z,7.10
2019-03-13T12:21:42.559Z,7.00
2019-03-13T12:24:21.581Z,7.00
2019-03-13T12:27:10.384Z,7.00
2019-03-13T12:30:00.741Z,7.00
2019-03-13T12:32:43.893Z,7.00
2019-03-13T12:35:38.871Z,7.00
2019-03-13T12:38:26.488Z,7.10
2019-03-13T12:41:19.059Z,7.00
2019-03-13T12:43:56.179Z,7.10
2019-03-13T12:46:43.792Z,7.20
2019-03-13T12:49:35.472Z,7.20
2019-03-13T12:52:25.172Z,7.20
2019-03-13T12:55:12.856Z,7.30
2019-03-13T12:58:00.585Z,7.40
2019-03-13T13:00:57.212Z,7.40
2019-03-13T13:03:41.462Z,7.50
2019-03-13T13:06:26.873Z,7.50
2019-03-13T13:09:11.539Z,7.50
2019-03-13T13:12:11.096Z,7.60
2019-03-13T13:15:06.105Z,7.60
2019-03-13T13:17:54.675Z,7.70
2019-03-13T13:20:24.629Z,7.70
2019-03-13T13:22:54.588Z,7.60
2019-03-13T13:25:24.407Z,7.60
2019-03-13T13:27:54.424Z,7.60
2019-03-13T13:30:24.155Z,7.60
2019-03-13T13:32:54.104Z,7.60
2019-03-13T13:35:23.772Z,7.70
2019-03-13T13:37:53.440Z,7.60
2019-03-13T13:40:23.205Z,7.60
2019-03-13T13:42:52.868Z,7.50
2019-03-13T13:45:42.669Z,7.60
2019-03-13T13:48:12.339Z,7.70
2019-03-13T13:50:41.992Z,7.70
2019-03-13T13:53:11.672Z,7.70
2019-03-13T13:55:41.484Z,7.60
2019-03-13T13:58:11.401Z,7.70
2019-03-13T14:00:41.135Z,7.70
2019-03-13T14:03:11.087Z,7.70
2019-03-13T14:05:41.234Z,7.70
2019-03-13T14:08:11.215Z,7.80
2019-03-13T14:10:41.027Z,7.80
2019-03-13T14:13:11.132Z,7.80
2019-03-13T14:15:41.137Z,7.80
2019-03-13T14:18:11.196Z,7.70
2019-03-13T14:20:40.938Z,7.70
2019-03-13T14:23:11.404Z,7.70
2019-03-13T14:25:41.147Z,7.70
2019-03-13T14:28:11.365Z,7.80
2019-03-13T14:30:41.223Z,7.90
2019-03-13T14:33:12.159Z,7.80
2019-03-13T14:35:42.040Z,7.80
2019-03-13T14:38:11.703Z,7.80
2019-03-13T14:40:41.363Z,7.80
2019-03-13T14:43:11.060Z,7.80
2019-03-13T14:45:40.808Z,7.80
2019-03-13T14:48:11.283Z,7.80
2019-03-13T14:50:40.977Z,7.80
2019-03-13T14:53:11.216Z,7.80
2019-03-13T14:55:41.043Z,7.80
2019-03-13T14:58:11.143Z,7.90
2019-03-13T15:00:41.119Z,7.80
2019-03-13T15:03:11.349Z,7.80
2019-03-13T15:05:41.414Z,7.80
2019-03-13T15:08:11.172Z,7.70
2019-03-13T15:10:41.175Z,7.80
2019-03-13T15:13:11.445Z,7.70
2019-03-13T15:15:41.183Z,7.70
2019-03-13T15:18:11.176Z,7.80
2019-03-13T15:20:40.916Z,7.70
2019-03-13T15:23:11.429Z,7.70
2019-03-13T15:25:41.169Z,7.70
2019-03-13T15:28:11.216Z,7.60
2019-03-13T15:30:40.884Z,7.60
2019-03-13T15:33:11.184Z,7.50
2019-03-13T15:35:40.880Z,7.50
2019-03-13T15:38:10.543Z,7.40
2019-03-13T15:40:40.216Z,7.40
2019-03-13T15:43:09.977Z,7.20
2019-03-13T15:45:39.788Z,7.30
2019-03-13T15:48:09.572Z,7.30
2019-03-13T15:50:39.316Z,7.30
2019-03-13T15:53:09.349Z,7.30
2019-03-13T15:55:39.027Z,7.20
2019-03-13T15:58:08.752Z,7.20
2019-03-13T16:00:38.455Z,7.10
2019-03-13T16:03:08.195Z,7.20
2019-03-13T16:05:38.048Z,7.10
2019-03-13T16:08:07.716Z,7.10
2019-03-13T16:10:37.618Z,7.00
2019-03-13T16:13:07.333Z,7.00
2019-03-13T16:15:38.232Z,7.00
2019-03-13T16:18:08.037Z,7.10
2019-03-13T16:20:38.007Z,7.10
2019-03-13T16:23:07.808Z,7.10
2019-03-13T16:25:37.485Z,7.10
2019-03-13T16:28:07.296Z,7.10
2019-03-13T16:30:39.415Z,7.00
2019-03-13T16:33:09.384Z,7.00
2019-03-13T16:35:39.111Z,7.00
2019-03-13T16:38:08.845Z,6.90
2019-03-13T16:40:38.980Z,6.90
2019-03-13T16:43:08.791Z,6.90
2019-03-13T16:45:38.528Z,6.90
2019-03-13T16:48:08.547Z,6.90
2019-03-13T16:50:38.538Z,6.90
2019-03-13T16:53:08.351Z,6.90
2019-03-13T16:55:38.007Z,6.70
2019-03-13T16:58:07.720Z,6.80
2019-03-13T17:00:37.933Z,6.70
2019-03-13T17:03:07.741Z,6.70
2019-03-13T17:05:37.690Z,6.60
2019-03-13T17:08:08.017Z,6.60
2019-03-13T17:10:37.747Z,6.70
2019-03-13T17:13:07.771Z,6.70
2019-03-13T17:15:37.448Z,6.70
2019-03-13T17:18:07.179Z,6.70
2019-03-13T17:20:37.131Z,6.60
2019-03-13T17:23:06.803Z,6.60
2019-03-13T17:25:36.940Z,6.60
2019-03-13T17:28:06.667Z,6.50
2019-03-13T17:30:36.666Z,6.40
2019-03-13T17:33:06.478Z,6.50
2019-03-13T17:35:36.140Z,6.50
2019-03-13T17:38:06.077Z,6.40
2019-03-13T17:40:35.880Z,6.40
2019-03-13T17:43:05.863Z,6.40
2019-03-13T17:45:35.527Z,6.30
2019-03-13T17:48:06.960Z,6.20
2019-03-13T17:50:36.627Z,6.30
2019-03-13T17:53:06.444Z,6.20
2019-03-13T17:55:36.184Z,6.20
2019-03-13T17:58:06.228Z,6.20
2019-03-13T18:00:42.641Z,6.20
2019-03-13T18:03:12.692Z,6.20
2019-03-13T18:05:42.429Z,6.20
2019-03-13T18:08:12.108Z,6.10
2019-03-13T18:10:42.011Z,6.20
2019-03-13T18:13:12.133Z,6.10
2019-03-13T18:15:41.864Z,6.10
2019-03-13T18:18:11.548Z,6.00
2019-03-13T18:20:41.456Z,6.10
2019-03-13T18:23:11.492Z,6.10
2019-03-13T18:25:41.674Z,6.10
2019-03-13T18:28:11.809Z,6.10
2019-03-13T18:30:41.627Z,6.10
2019-03-13T18:33:12.093Z,6.10
2019-03-13T18:35:41.977Z,6.10
2019-03-13T18:38:12.056Z,6.20
2019-03-13T18:40:41.720Z,6.10
2019-03-13T18:43:11.487Z,6.20
2019-03-13T18:45:41.543Z,6.20
2019-03-13T18:48:11.603Z,6.30
2019-03-13T18:50:41.457Z,6.30
2019-03-13T18:53:12.020Z,6.20
2019-03-13T18:55:41.859Z,6.30
2019-03-13T18:58:13.990Z,6.30
2019-03-13T19:00:43.362Z,6.30
2019-03-13T19:03:13.166Z,6.30
2019-03-13T19:05:43.360Z,6.30
2019-03-13T19:08:13.692Z,6.30
2019-03-13T19:10:43.728Z,6.30
2019-03-13T19:13:13.752Z,6.30
2019-03-13T19:15:43.425Z,6.20
2019-03-13T19:18:13.107Z,6.20
2019-03-13T19:20:42.840Z,6.30
2019-03-13T19:23:14.190Z,6.30
2019-03-13T19:25:45.521Z,6.40
2019-03-13T19:28:15.179Z,6.40
2019-03-13T19:30:45.211Z,6.60
2019-03-13T19:33:14.965Z,6.60
2019-03-13T19:35:45.044Z,6.60
2019-03-13T19:38:14.973Z,6.50
2019-03-13T19:40:44.971Z,6.50
2019-03-13T19:43:15.159Z,6.50
2019-03-13T19:45:45.013Z,6.60
2019-03-13T19:48:14.945Z,6.50
2019-03-13T19:50:44.860Z,6.50
2019-03-13T19:53:14.780Z,6.50
2019-03-13T19:55:44.512Z,6.40
2019-03-13T19:58:14.527Z,6.50
2019-03-13T20:00:44.347Z,6.50
2019-03-13T20:03:14.068Z,6.50
2019-03-13T20:05:45.721Z,6.60
2019-03-13T20:08:15.531Z,6.60
2019-03-13T20:10:45.527Z,6.60
2019-03-13T20:13:15.200Z,6.60
2019-03-13T20:15:44.955Z,6.70
2019-03-13T20:18:14.628Z,6.70
2019-03-13T20:20:44.364Z,6.70
2019-03-13T20:23:14.287Z,6.70
2019-03-13T20:25:44.029Z,6.70
2019-03-13T20:28:13.846Z,6.70
2019-03-13T20:30:44.635Z,6.70
2019-03-13T20:33:14.360Z,6.70
2019-03-13T20:35:44.123Z,6.70
2019-03-13T20:38:14.127Z,6.60
2019-03-13T20:40:44.384Z,6.70
2019-03-13T20:43:14.139Z,6.70
2019-03-13T20:45:43.802Z,6.70
2019-03-13T20:48:13.956Z,6.70
2019-03-13T20:50:43.856Z,6.70
2019-03-13T20:53:13.542Z,6.70
2019-03-13T20:55:43.347Z,6.80
2019-03-13T20:58:13.014Z,6.70
2019-03-13T21:00:42.761Z,6.70
2019-03-13T21:03:12.596Z,6.70
2019-03-13T21:05:42.554Z,6.70
2019-03-13T21:08:12.228Z,6.70
2019-03-13T21:10:41.884Z,6.70
2019-03-13T21:13:11.700Z,6.80
2019-03-13T21:15:43.654Z,6.70
2019-03-13T21:18:13.039Z,6.70
2019-03-13T21:20:43.018Z,6.70
2019-03-13T21:23:13.139Z,6.70
2019-03-13T21:25:43.205Z,6.70
2019-03-13T21:28:12.947Z,6.60
2019-03-13T21:30:42.614Z,6.60
2019-03-13T21:33:12.616Z,6.70
2019-03-13T21:35:42.759Z,6.60
2019-03-13T21:38:13.251Z,6.60
2019-03-13T21:40:43.137Z,6.60
2019-03-13T21:43:16.090Z,6.60
2019-03-13T21:45:44.173Z,6.70
2019-03-13T21:48:13.908Z,6.70
2019-03-13T21:50:43.656Z,6.60
2019-03-13T21:53:13.319Z,6.70
2019-03-13T21:55:43.042Z,6.70
2019-03-13T21:58:12.978Z,6.60
2019-03-13T22:00:42.703Z,6.60
2019-03-13T22:03:12.368Z,6.60
2019-03-13T22:05:42.112Z,6.60
2019-03-13T22:08:11.968Z,6.60
2019-03-13T22:10:41.972Z,6.50
2019-03-13T22:13:12.191Z,6.50
2019-03-13T22:15:41.859Z,6.50
2019-03-13T22:18:12.491Z,6.50
2019-03-13T22:20:42.165Z,6.60
2019-03-13T22:23:11.937Z,6.50
2019-03-13T22:25:42.020Z,6.50
2019-03-13T22:28:11.681Z,6.50
2019-03-13T22:30:41.348Z,6.50
2019-03-13T22:33:11.587Z,6.40
2019-03-13T22:35:41.505Z,6.40
2019-03-13T22:38:11.631Z,6.40
2019-03-13T22:40:41.586Z,6.40
2019-03-13T22:43:11.895Z,6.40
2019-03-13T22:45:42.944Z,6.40
2019-03-13T22:48:12.615Z,6.40
2019-03-13T22:50:42.323Z,6.40
2019-03-13T22:53:12.039Z,6.30
2019-03-13T22:55:41.774Z,6.40
2019-03-13T22:58:11.665Z,6.30
2019-03-13T23:01:07.323Z,6.30
2019-03-13T23:03:40.403Z,6.20
2019-03-13T23:06:09.143Z,6.30
2019-03-13T23:08:38.852Z,6.30
2019-03-13T23:11:08.636Z,6.20
2019-03-13T23:13:38.378Z,6.20
2019-03-13T23:16:08.216Z,6.20
2019-03-13T23:18:38.035Z,6.30
2019-03-13T23:21:07.712Z,6.30
2019-03-13T23:23:37.411Z,6.40
2019-03-13T23:26:07.469Z,6.40
2019-03-13T23:28:37.145Z,6.40
2019-03-13T23:31:06.827Z,6.40
2019-03-13T23:33:36.559Z,6.40
2019-03-13T23:36:06.324Z,6.40
2019-03-13T23:38:36.328Z,6.40
2019-03-13T23:41:06.407Z,6.40
2019-03-13T23:43:36.131Z,6.40
2019-03-13T23:46:06.141Z,6.40
2019-03-13T23:48:35.829Z,6.40
2019-03-13T23:51:05.496Z,6.40
2019-03-13T23:53:35.239Z,6.40
2019-03-13T23:56:05.038Z,6.40
2019-03-13T23:58:34.708Z,6.40
